ΑΕΡΟΝΑΥΤΙΛΙΑ

ΚΩΔΙΚΕΣ ΕΛΛΗΝΙΚΩΝ ΑΕΡΟΔΡΟΜΙΩΝ

LGAV 201020Z 08010KT 050V110 9999 FEW025 30/15 Q1012 RMK FEW180 NOSIG=

ΚΩΔΙΚΕΣ ΕΥΡΩΠΑΪΚΩΝ ΑΕΡΟΔΡΟΜΙΩΝ

TAF LGAV 200500Z 2006/2106 06010KT 9999 FEW025 TEMPO 2008/2015 FEW020TCU SCT030 PROB30 TEMPO 2009/2015 5000 TSRA FEW016CB BKN020 BECMG 2012/2014 18010KT BECMG 2016/2018 VRB03KT=